createdAt,value
2022-08-26T00:02:07.254Z,101227.84
2022-08-26T00:04:35.562Z,101220.13
2022-08-26T00:07:05.759Z,101220.81
2022-08-26T00:09:38.852Z,101222.72
2022-08-26T00:12:08.013Z,101221.50
2022-08-26T00:14:37.194Z,101223.31
2022-08-26T00:17:05.257Z,101214.50
2022-08-26T00:19:36.670Z,101224.22
2022-08-26T00:22:06.360Z,101225.66
2022-08-26T00:24:34.574Z,101219.56
2022-08-26T00:27:02.542Z,101209.81
2022-08-26T00:29:32.068Z,101220.63
2022-08-26T00:32:04.104Z,101215.59
2022-08-26T00:34:32.184Z,101213.88
2022-08-26T00:37:00.524Z,101214.28
2022-08-26T00:39:29.938Z,101208.91
2022-08-26T00:41:57.888Z,101218.22
2022-08-26T00:44:26.200Z,101220.44
2022-08-26T00:46:56.521Z,101213.53
2022-08-26T00:49:26.423Z,101205.31
2022-08-26T00:51:58.551Z,101209.28
2022-08-26T00:54:31.837Z,101207.88
2022-08-26T00:57:02.332Z,101207.22
2022-08-26T00:59:33.863Z,101207.66
2022-08-26T01:02:03.025Z,101201.53
2022-08-26T01:04:31.841Z,101200.56
2022-08-26T01:07:00.518Z,101206.03
2022-08-26T01:09:30.421Z,101207.41
2022-08-26T01:12:01.082Z,101207.81
2022-08-26T01:14:32.669Z,101205.38
2022-08-26T01:17:02.833Z,101204.00
2022-08-26T01:19:37.595Z,101199.66
2022-08-26T01:22:12.319Z,101206.44
2022-08-26T01:24:42.447Z,101200.47
2022-08-26T01:27:12.206Z,101205.59
2022-08-26T01:29:42.635Z,101205.00
2022-08-26T01:32:11.958Z,101199.34
2022-08-26T01:34:41.459Z,101207.47
2022-08-26T01:37:16.080Z,101213.59
2022-08-26T01:39:50.406Z,101214.53
2022-08-26T01:42:21.398Z,101209.28
2022-08-26T01:44:54.051Z,101204.75
2022-08-26T01:47:23.517Z,101209.16
2022-08-26T01:49:54.196Z,101208.50
2022-08-26T01:52:28.044Z,101215.31
2022-08-26T01:54:58.825Z,101214.28
2022-08-26T01:57:27.214Z,101206.56
2022-08-26T01:59:57.118Z,101204.44
2022-08-26T02:02:25.427Z,101203.50
2022-08-26T02:04:56.571Z,101209.00
2022-08-26T02:07:26.705Z,101203.03
2022-08-26T02:09:55.643Z,101203.75
2022-08-26T02:12:25.930Z,101196.59
2022-08-26T02:14:55.647Z,101197.63
2022-08-26T02:17:28.123Z,101201.97
2022-08-26T02:19:57.181Z,101196.19
2022-08-26T02:22:26.517Z,101193.97
2022-08-26T02:24:56.480Z,101195.47
2022-08-26T02:27:28.115Z,101188.97
2022-08-26T02:30:05.417Z,101196.41
2022-08-26T02:32:33.389Z,101186.22
2022-08-26T02:35:02.985Z,101189.09
2022-08-26T02:37:32.968Z,101197.44
2022-08-26T02:40:02.343Z,101191.63
2022-08-26T02:42:32.630Z,101185.81
2022-08-26T02:45:01.691Z,101187.63
2022-08-26T02:47:30.710Z,101190.13
2022-08-26T02:50:00.884Z,101191.09
2022-08-26T02:52:29.146Z,101189.91
2022-08-26T02:54:57.206Z,101183.03
2022-08-26T02:57:25.248Z,101185.66
2022-08-26T02:59:54.592Z,101183.94
2022-08-26T03:02:23.140Z,101187.09
2022-08-26T03:04:58.022Z,101182.56
2022-08-26T03:07:30.391Z,101177.84
2022-08-26T03:09:58.426Z,101173.97
2022-08-26T03:12:26.485Z,101174.66
2022-08-26T03:14:56.315Z,101172.47
2022-08-26T03:17:24.328Z,101168.44
2022-08-26T03:19:57.277Z,101167.84
2022-08-26T03:22:25.740Z,101170.16
2022-08-26T03:24:55.334Z,101164.59
2022-08-26T03:27:23.333Z,101161.00
2022-08-26T03:30:11.725Z,101160.50
2022-08-26T03:32:41.635Z,101160.38
2022-08-26T03:35:10.161Z,101161.94
2022-08-26T03:37:38.461Z,101165.53
2022-08-26T03:40:09.064Z,101166.13
2022-08-26T03:42:37.804Z,101155.31
2022-08-26T03:45:07.726Z,101155.47
2022-08-26T03:47:35.997Z,101152.81
2022-08-26T03:50:09.863Z,101149.22
2022-08-26T03:52:41.810Z,101145.34
2022-08-26T03:55:12.647Z,101150.72
2022-08-26T03:57:40.756Z,101146.72
2022-08-26T04:00:14.231Z,101146.91
2022-08-26T04:02:48.822Z,101154.59
2022-08-26T04:05:20.570Z,101139.88
2022-08-26T04:07:48.690Z,101141.63
2022-08-26T04:10:22.318Z,101144.13
2022-08-26T04:12:58.809Z,101138.66
2022-08-26T04:15:28.237Z,101146.19
2022-08-26T04:17:57.528Z,101142.78
2022-08-26T04:20:27.188Z,101138.38
2022-08-26T04:22:56.259Z,101141.31
2022-08-26T04:25:25.150Z,101134.03
2022-08-26T04:27:53.231Z,101129.44
2022-08-26T04:30:21.960Z,101136.75
2022-08-26T04:32:50.012Z,101139.09
2022-08-26T04:35:18.138Z,101139.47
2022-08-26T04:37:48.952Z,101134.56
2022-08-26T04:40:17.146Z,101134.91
2022-08-26T04:42:45.309Z,101125.56
2022-08-26T04:45:14.134Z,101133.31
2022-08-26T04:47:42.281Z,101142.47
2022-08-26T04:50:11.055Z,101142.38
2022-08-26T04:52:39.151Z,101147.38
2022-08-26T04:55:09.986Z,101146.44
2022-08-26T04:57:37.968Z,101150.44
2022-08-26T05:00:10.297Z,101147.59
2022-08-26T05:02:39.484Z,101148.03
2022-08-26T05:05:09.397Z,101142.53
2022-08-26T05:07:37.613Z,101151.75
2022-08-26T05:10:08.726Z,101155.75
2022-08-26T05:12:38.407Z,101152.34
2022-08-26T05:15:07.976Z,101160.69
2022-08-26T05:17:36.455Z,101157.81
2022-08-26T05:20:05.337Z,101157.00
2022-08-26T05:22:34.440Z,101163.25
2022-08-26T05:25:02.738Z,101158.84
2022-08-26T05:27:30.720Z,101167.09
2022-08-26T05:30:00.143Z,101158.91
2022-08-26T05:32:29.215Z,101164.91
2022-08-26T05:34:57.333Z,101164.13
2022-08-26T05:37:26.596Z,101177.34
2022-08-26T05:39:54.695Z,101172.41
2022-08-26T05:42:22.685Z,101174.44
2022-08-26T05:44:56.063Z,101182.31
2022-08-26T05:47:26.160Z,101176.91
2022-08-26T05:49:54.526Z,101168.00
2022-08-26T05:52:24.702Z,101175.91
2022-08-26T05:54:54.320Z,101173.34
2022-08-26T05:57:23.077Z,101174.16
2022-08-26T05:59:51.677Z,101177.53
2022-08-26T06:02:19.756Z,101178.84
2022-08-26T06:04:49.186Z,101174.47
2022-08-26T06:07:17.181Z,101177.91
2022-08-26T06:09:46.584Z,101177.16
2022-08-26T06:12:15.799Z,101185.59
2022-08-26T06:14:46.647Z,101184.84
2022-08-26T06:17:16.959Z,101175.75
2022-08-26T06:19:45.793Z,101178.44
2022-08-26T06:22:29.185Z,101181.72
2022-08-26T06:25:14.943Z,101181.03
2022-08-26T06:27:42.946Z,101174.50
2022-08-26T06:30:12.860Z,101163.25
2022-08-26T06:32:40.879Z,101163.91
2022-08-26T06:35:11.913Z,101162.66
2022-08-26T06:37:42.909Z,101147.13
2022-08-26T06:40:11.919Z,101158.28
2022-08-26T06:42:40.038Z,101158.00
2022-08-26T06:45:09.054Z,101162.25
2022-08-26T06:47:37.443Z,101164.63
2022-08-26T06:50:05.737Z,101172.25
2022-08-26T06:52:33.873Z,101167.66
2022-08-26T06:55:04.172Z,101183.19
2022-08-26T06:57:34.892Z,101179.66
2022-08-26T07:00:08.411Z,101187.97
2022-08-26T07:02:36.507Z,101188.84
2022-08-26T07:05:04.728Z,101182.81
2022-08-26T07:07:32.819Z,101193.06
2022-08-26T07:10:01.000Z,101191.38
2022-08-26T07:12:31.048Z,101186.03
2022-08-26T07:14:59.113Z,101186.66
2022-08-26T07:17:27.178Z,101186.19
2022-08-26T07:19:55.426Z,101189.91
2022-08-26T07:22:23.545Z,101184.81
2022-08-26T07:24:52.344Z,101186.56
2022-08-26T07:27:20.387Z,101184.16
2022-08-26T07:29:50.542Z,101183.34
2022-08-26T07:32:22.964Z,101187.19
2022-08-26T07:34:51.355Z,101189.97
2022-08-26T07:37:19.805Z,101186.53
2022-08-26T07:39:48.279Z,101181.84
2022-08-26T07:42:19.845Z,101180.59
2022-08-26T07:44:48.595Z,101192.06
2022-08-26T07:47:25.547Z,101195.84
2022-08-26T07:49:55.612Z,101190.78
2022-08-26T07:52:26.773Z,101190.16
2022-08-26T07:54:55.785Z,101183.06
2022-08-26T07:57:24.262Z,101185.59
2022-08-26T07:59:54.078Z,101162.59
2022-08-26T08:02:28.254Z,101174.97
2022-08-26T08:04:56.892Z,101187.53
2022-08-26T08:07:38.361Z,101183.63
2022-08-26T08:10:14.882Z,101188.13
2022-08-26T08:12:46.077Z,101189.34
2022-08-26T08:15:15.548Z,101184.44
2022-08-26T08:17:45.473Z,101197.59
2022-08-26T08:20:15.435Z,101184.13
2022-08-26T08:22:43.780Z,101194.81
2022-08-26T08:25:12.485Z,101186.28
2022-08-26T08:27:42.466Z,101191.94
2022-08-26T08:30:13.901Z,101190.16
2022-08-26T08:32:43.520Z,101190.31
2022-08-26T08:35:14.611Z,101194.47
2022-08-26T08:37:43.895Z,101193.94
2022-08-26T08:40:13.889Z,101188.91
2022-08-26T08:42:46.926Z,101195.84
2022-08-26T08:45:19.508Z,101190.50
2022-08-26T08:47:51.424Z,101205.00
2022-08-26T08:50:27.819Z,101210.25
2022-08-26T08:53:09.012Z,101213.78
2022-08-26T08:55:46.322Z,101213.38
2022-08-26T08:58:19.139Z,101205.59
2022-08-26T09:00:52.875Z,101214.88
2022-08-26T09:03:31.339Z,101209.34
2022-08-26T09:06:01.879Z,101210.34
2022-08-26T09:08:35.338Z,101197.34
2022-08-26T09:11:04.486Z,101198.44
2022-08-26T09:13:33.233Z,101199.78
2022-08-26T09:16:19.008Z,101200.00
2022-08-26T09:19:05.167Z,101205.56
2022-08-26T09:21:35.284Z,101206.94
2022-08-26T09:24:04.735Z,101198.41
2022-08-26T09:26:47.300Z,101199.31
2022-08-26T09:29:22.774Z,101193.38
2022-08-26T09:31:54.551Z,101210.63
2022-08-26T09:34:34.718Z,101218.31
2022-08-26T09:37:06.760Z,101221.63
2022-08-26T09:39:40.609Z,101212.28
2022-08-26T09:42:12.948Z,101210.78
2022-08-26T09:45:04.370Z,101224.16
2022-08-26T09:47:35.128Z,101206.47
2022-08-26T09:50:12.957Z,101199.09
2022-08-26T09:52:42.630Z,101205.50
2022-08-26T09:55:14.683Z,101211.91
2022-08-26T09:58:06.780Z,101206.34
2022-08-26T10:00:54.820Z,101201.44
2022-08-26T10:03:28.546Z,101199.34
2022-08-26T10:06:01.957Z,101190.81
2022-08-26T10:08:35.953Z,101194.00
2022-08-26T10:11:08.601Z,101180.25
2022-08-26T10:13:42.424Z,101178.13
2022-08-26T10:16:16.576Z,101175.94
2022-08-26T10:18:52.554Z,101152.50
2022-08-26T10:21:26.053Z,101152.94
2022-08-26T10:23:59.093Z,101156.66
2022-08-26T10:26:32.986Z,101154.53
2022-08-26T10:29:07.685Z,101147.88
2022-08-26T10:31:40.077Z,101145.34
2022-08-26T10:34:09.993Z,101143.41
2022-08-26T10:37:13.975Z,101147.28
2022-08-26T10:39:46.844Z,101141.16
2022-08-26T10:42:22.630Z,101126.50
2022-08-26T10:44:58.745Z,101124.69
2022-08-26T10:47:33.601Z,101143.22
2022-08-26T10:50:03.639Z,101143.88
2022-08-26T10:52:39.542Z,101142.81
2022-08-26T10:55:14.621Z,101150.50
2022-08-26T10:57:47.893Z,101152.66
2022-08-26T11:00:37.620Z,101151.81
2022-08-26T11:03:21.727Z,101148.63
2022-08-26T11:06:16.877Z,101142.47
2022-08-26T11:08:48.103Z,101149.28
2022-08-26T11:11:51.690Z,101141.56
2022-08-26T11:14:45.981Z,101136.97
2022-08-26T11:17:56.343Z,101137.44
2022-08-26T11:20:34.454Z,101134.13
2022-08-26T11:23:44.370Z,101133.06
2022-08-26T11:26:36.171Z,101129.03
2022-08-26T11:29:12.828Z,101118.28
2022-08-26T11:31:59.739Z,101117.97
2022-08-26T11:34:52.718Z,101103.16
2022-08-26T11:37:22.040Z,101099.38
2022-08-26T11:39:55.425Z,101095.94
2022-08-26T11:42:32.595Z,101099.56
2022-08-26T11:45:20.434Z,101095.81
2022-08-26T11:47:49.377Z,101102.72
2022-08-26T11:50:23.503Z,101095.84
2022-08-26T11:52:59.365Z,101092.00
2022-08-26T11:55:27.570Z,101079.91
2022-08-26T11:57:58.129Z,101089.00
2022-08-26T12:00:33.611Z,101079.09
2022-08-26T12:03:07.589Z,101079.91
2022-08-26T12:05:38.208Z,101068.69
2022-08-26T12:08:09.956Z,101066.59
2022-08-26T12:10:39.390Z,101068.13
2022-08-26T12:13:08.344Z,101068.22
2022-08-26T12:15:37.879Z,101074.03
2022-08-26T12:18:20.618Z,101072.88
2022-08-26T12:20:57.522Z,101069.41
2022-08-26T12:23:27.775Z,101076.34
2022-08-26T12:26:05.809Z,101066.44
2022-08-26T12:28:34.488Z,101075.75
2022-08-26T12:31:06.609Z,101068.44
2022-08-26T12:33:36.700Z,101072.41
2022-08-26T12:36:05.397Z,101070.38
2022-08-26T12:38:34.038Z,101061.19
2022-08-26T12:41:02.254Z,101064.78
2022-08-26T12:43:44.783Z,101056.31
2022-08-26T12:46:17.954Z,101054.16
2022-08-26T12:48:49.778Z,101055.22
2022-08-26T12:51:23.835Z,101045.66
2022-08-26T12:53:51.983Z,101047.06
2022-08-26T12:56:23.416Z,101037.56
2022-08-26T12:59:03.133Z,101034.44
2022-08-26T13:01:40.376Z,101033.03
2022-08-26T13:04:08.690Z,101030.94
2022-08-26T13:06:36.770Z,101032.91
2022-08-26T13:09:28.653Z,101028.78
2022-08-26T13:12:00.372Z,101031.75
2022-08-26T13:14:31.154Z,101029.69
2022-08-26T13:17:00.647Z,101031.16
2022-08-26T13:19:29.607Z,101026.06
2022-08-26T13:21:59.370Z,101021.31
2022-08-26T13:24:31.103Z,101027.81
2022-08-26T13:26:59.187Z,101032.19
2022-08-26T13:29:27.461Z,101021.38
2022-08-26T13:31:57.219Z,101020.28
2022-08-26T13:34:27.362Z,101027.94
2022-08-26T13:36:56.384Z,101032.84
2022-08-26T13:39:25.054Z,101035.09
2022-08-26T13:41:53.469Z,101032.44
2022-08-26T13:44:21.725Z,101030.66
2022-08-26T13:46:49.878Z,101033.44
2022-08-26T13:49:18.014Z,101033.16
2022-08-26T13:51:47.566Z,101025.28
2022-08-26T13:54:15.605Z,101039.31
2022-08-26T13:56:43.749Z,101032.94
2022-08-26T13:59:12.171Z,101033.59
2022-08-26T14:01:40.239Z,101042.22
2022-08-26T14:04:14.237Z,101035.59
2022-08-26T14:06:42.589Z,101036.75
2022-08-26T14:09:14.447Z,101035.13
2022-08-26T14:11:53.961Z,101027.38
2022-08-26T14:14:22.839Z,101029.88
2022-08-26T14:16:59.718Z,101038.28
2022-08-26T14:19:29.720Z,101026.28
2022-08-26T14:21:57.943Z,101033.50
2022-08-26T14:24:27.802Z,101039.69
2022-08-26T14:26:55.873Z,101027.06
2022-08-26T14:29:24.714Z,101031.66
2022-08-26T14:31:52.973Z,101024.44
2022-08-26T14:34:21.078Z,101023.34
2022-08-26T14:36:49.231Z,101018.84
2022-08-26T14:39:17.318Z,101011.38
2022-08-26T14:41:53.823Z,101015.78
2022-08-26T14:44:24.878Z,101002.53
2022-08-26T14:46:54.548Z,101004.88
2022-08-26T14:49:23.972Z,101005.34
2022-08-26T14:51:52.043Z,101004.16
2022-08-26T14:54:22.743Z,100996.63
2022-08-26T14:56:54.009Z,100984.38
2022-08-26T14:59:24.171Z,100992.47
2022-08-26T15:01:53.334Z,100997.34
2022-08-26T15:04:21.687Z,101001.38
2022-08-26T15:06:50.075Z,100997.81
2022-08-26T15:09:18.294Z,100994.69
2022-08-26T15:11:47.724Z,101010.00
2022-08-26T15:14:19.541Z,101012.78
2022-08-26T15:16:48.701Z,101021.63
2022-08-26T15:19:17.040Z,101020.72
2022-08-26T15:21:45.641Z,101015.28
2022-08-26T15:24:14.093Z,101024.84
2022-08-26T15:26:42.375Z,101025.91
2022-08-26T15:29:10.483Z,101036.66
2022-08-26T15:31:40.164Z,101039.09
2022-08-26T15:34:14.547Z,101035.28
2022-08-26T15:36:46.379Z,101033.72
2022-08-26T15:39:15.737Z,101035.94
2022-08-26T15:41:44.133Z,101030.72
2022-08-26T15:44:13.812Z,101039.50
2022-08-26T15:46:44.387Z,101042.66
2022-08-26T15:49:18.250Z,101059.50
2022-08-26T15:51:48.283Z,101063.44
2022-08-26T15:54:17.635Z,101068.09
2022-08-26T15:56:47.913Z,101069.06
2022-08-26T15:59:16.599Z,101071.16
2022-08-26T16:01:46.383Z,101059.31
2022-08-26T16:04:14.994Z,101059.50
2022-08-26T16:06:50.543Z,101047.38
2022-08-26T16:09:18.796Z,101044.34
2022-08-26T16:11:46.854Z,101053.34
2022-08-26T16:14:15.002Z,101052.72
2022-08-26T16:16:43.215Z,101047.16
2022-08-26T16:19:12.957Z,101052.25
2022-08-26T16:21:41.515Z,101043.34
2022-08-26T16:24:10.179Z,101048.50
2022-08-26T16:26:40.295Z,101050.50
2022-08-26T16:29:12.321Z,101041.88
2022-08-26T16:31:40.759Z,101042.91
2022-08-26T16:34:09.366Z,101061.66
2022-08-26T16:36:39.717Z,101069.47
2022-08-26T16:39:08.849Z,101071.84
2022-08-26T16:41:37.442Z,101070.78
2022-08-26T16:44:06.014Z,101062.09
2022-08-26T16:46:35.343Z,101070.03
2022-08-26T16:49:04.766Z,101070.22
2022-08-26T16:51:37.807Z,101072.41
2022-08-26T16:54:09.003Z,101076.13
2022-08-26T16:56:37.653Z,101078.66
2022-08-26T16:59:07.382Z,101080.53
2022-08-26T17:01:35.659Z,101081.78
2022-08-26T17:04:04.374Z,101078.78
2022-08-26T17:06:32.654Z,101065.81
2022-08-26T17:09:00.648Z,101059.72
2022-08-26T17:11:30.132Z,101064.84
2022-08-26T17:13:58.149Z,101075.31
2022-08-26T17:16:27.300Z,101073.69
2022-08-26T17:18:56.859Z,101077.50
2022-08-26T17:21:25.406Z,101087.44
2022-08-26T17:23:53.683Z,101082.28
2022-08-26T17:26:21.950Z,101078.94
2022-08-26T17:28:51.852Z,101081.09
2022-08-26T17:31:20.432Z,101088.59
2022-08-26T17:33:53.776Z,101086.31
2022-08-26T17:36:23.399Z,101092.91
2022-08-26T17:38:57.073Z,101097.59
2022-08-26T17:41:25.308Z,101105.25
2022-08-26T17:43:54.767Z,101098.97
2022-08-26T17:46:22.870Z,101102.03
2022-08-26T17:48:50.957Z,101106.84
2022-08-26T17:51:20.302Z,101090.69
2022-08-26T17:53:48.999Z,101089.44
2022-08-26T17:56:19.588Z,101084.66
2022-08-26T17:58:51.659Z,101083.19
2022-08-26T18:01:22.062Z,101082.06
2022-08-26T18:03:50.848Z,101073.47
2022-08-26T18:06:19.676Z,101079.66
2022-08-26T18:08:48.326Z,101080.28
2022-08-26T18:11:18.777Z,101079.66
2022-08-26T18:13:48.187Z,101075.56
2022-08-26T18:16:17.801Z,101085.19
2022-08-26T18:18:48.081Z,101071.34
2022-08-26T18:21:17.859Z,101074.75
2022-08-26T18:23:46.757Z,101075.75
2022-08-26T18:26:18.323Z,101072.53
2022-08-26T18:28:46.851Z,101070.72
2022-08-26T18:31:15.308Z,101082.31
2022-08-26T18:33:44.198Z,101099.31
2022-08-26T18:36:19.107Z,101103.03
2022-08-26T18:38:47.329Z,101104.78
2022-08-26T18:41:20.691Z,101109.22
2022-08-26T18:43:50.469Z,101120.69
2022-08-26T18:46:20.260Z,101123.94
2022-08-26T18:48:49.086Z,101125.41
2022-08-26T18:51:22.828Z,101125.84
2022-08-26T18:53:52.536Z,101128.41
2022-08-26T18:56:20.632Z,101134.09
2022-08-26T18:58:48.920Z,101123.34
2022-08-26T19:01:17.899Z,101119.28
2022-08-26T19:03:46.696Z,101131.22
2022-08-26T19:06:15.895Z,101126.84
2022-08-26T19:08:45.390Z,101131.59
2022-08-26T19:11:18.826Z,101137.84
2022-08-26T19:14:01.168Z,101142.19
2022-08-26T19:16:30.279Z,101141.66
2022-08-26T19:18:58.966Z,101133.53
2022-08-26T19:21:27.043Z,101139.38
2022-08-26T19:23:59.266Z,101142.22
2022-08-26T19:26:28.254Z,101138.66
2022-08-26T19:28:56.499Z,101145.81
2022-08-26T19:31:24.574Z,101151.81
2022-08-26T19:33:52.638Z,101138.19
2022-08-26T19:36:23.777Z,101137.81
2022-08-26T19:38:52.067Z,101142.66
2022-08-26T19:41:37.224Z,101138.28
2022-08-26T19:44:08.643Z,101121.44
2022-08-26T19:49:10.163Z,101133.88
2022-08-26T19:51:38.214Z,101136.47
2022-08-26T19:54:06.654Z,101136.97
2022-08-26T19:56:36.911Z,101144.25
2022-08-26T19:59:04.939Z,101138.00
2022-08-26T20:01:34.288Z,101154.16
2022-08-26T20:04:02.854Z,101147.91
2022-08-26T20:06:30.991Z,101149.50
2022-08-26T20:08:59.081Z,101143.91
2022-08-26T20:11:27.235Z,101140.84
2022-08-26T20:13:57.193Z,101140.72
2022-08-26T20:16:25.316Z,101148.38
2022-08-26T20:19:11.059Z,101141.88
2022-08-26T20:21:40.692Z,101144.81
2022-08-26T20:24:12.557Z,101137.81
2022-08-26T20:26:42.017Z,101135.25
2022-08-26T20:29:12.950Z,101136.91
2022-08-26T20:31:41.526Z,101136.28
2022-08-26T20:34:09.667Z,101126.03
2022-08-26T20:36:39.281Z,101137.72
2022-08-26T20:39:07.581Z,101123.31
2022-08-26T20:41:35.647Z,101135.53
2022-08-26T20:44:04.094Z,101136.91
2022-08-26T20:46:34.941Z,101134.66
2022-08-26T20:49:03.328Z,101142.28
2022-08-26T20:51:34.900Z,101137.94
2022-08-26T20:54:02.924Z,101146.25
2022-08-26T20:56:31.105Z,101160.00
2022-08-26T20:59:01.625Z,101154.97
2022-08-26T21:01:34.762Z,101166.41
2022-08-26T21:04:04.701Z,101164.16
2022-08-26T21:06:33.918Z,101159.03
2022-08-26T21:09:02.568Z,101166.63
2022-08-26T21:11:32.296Z,101160.56
2022-08-26T21:14:04.674Z,101153.34
2022-08-26T21:16:37.273Z,101162.84
2022-08-26T21:19:05.969Z,101156.41
2022-08-26T21:21:34.231Z,101175.00
2022-08-26T21:24:02.241Z,101175.84
2022-08-26T21:26:30.456Z,101184.34
2022-08-26T21:28:58.463Z,101172.00
2022-08-26T21:31:26.861Z,101179.81
2022-08-26T21:33:56.336Z,101171.66
2022-08-26T21:36:24.464Z,101160.34
2022-08-26T21:38:52.523Z,101164.88
2022-08-26T21:41:22.089Z,101167.22
2022-08-26T21:43:51.130Z,101175.56
2022-08-26T21:46:22.043Z,101170.78
2022-08-26T21:48:51.666Z,101170.19
2022-08-26T21:51:22.932Z,101169.31
2022-08-26T21:53:52.869Z,101182.16
2022-08-26T21:56:22.318Z,101178.53
2022-08-26T21:58:52.581Z,101176.91
2022-08-26T22:01:23.054Z,101178.50
2022-08-26T22:03:52.293Z,101181.66
2022-08-26T22:06:23.823Z,101184.66
2022-08-26T22:08:51.897Z,101184.78
2022-08-26T22:11:20.362Z,101176.56
2022-08-26T22:13:49.138Z,101183.69
2022-08-26T22:16:17.457Z,101181.41
2022-08-26T22:18:46.039Z,101186.81
2022-08-26T22:21:18.579Z,101186.16
2022-08-26T22:23:48.391Z,101182.09
2022-08-26T22:26:20.627Z,101182.31
2022-08-26T22:28:57.471Z,101177.41
2022-08-26T22:31:37.140Z,101180.00
2022-08-26T22:34:07.979Z,101176.19
2022-08-26T22:36:42.932Z,101179.03
2022-08-26T22:39:14.153Z,101168.50
2022-08-26T22:41:43.120Z,101185.19
2022-08-26T22:44:11.821Z,101167.03
2022-08-26T22:46:40.674Z,101169.53
2022-08-26T22:49:09.737Z,101166.13
2022-08-26T22:51:37.983Z,101174.75
2022-08-26T22:54:06.437Z,101172.47
2022-08-26T22:56:35.880Z,101172.72
2022-08-26T22:59:04.342Z,101176.44
2022-08-26T23:01:32.635Z,101163.06
2022-08-26T23:04:01.187Z,101171.72
2022-08-26T23:06:29.292Z,101166.59
2022-08-26T23:08:57.315Z,101165.19
2022-08-26T23:11:25.852Z,101165.84
2022-08-26T23:13:55.444Z,101172.19
2022-08-26T23:16:23.482Z,101163.84
2022-08-26T23:18:54.297Z,101164.22
2022-08-26T23:21:22.294Z,101178.38
2022-08-26T23:23:50.443Z,101168.44
2022-08-26T23:26:18.495Z,101162.94
2022-08-26T23:28:47.111Z,101163.22
2022-08-26T23:31:16.589Z,101169.53
2022-08-26T23:34:02.731Z,101159.53
2022-08-26T23:36:31.096Z,101164.50
2022-08-26T23:39:03.126Z,101160.06
2022-08-26T23:41:31.206Z,101156.75
2022-08-26T23:44:03.395Z,101153.41
2022-08-26T23:46:33.558Z,101155.09
2022-08-26T23:49:01.869Z,101154.94
2022-08-26T23:51:47.550Z,101150.59
2022-08-26T23:54:17.046Z,101142.44
2022-08-26T23:56:45.635Z,101152.72
2022-08-26T23:59:13.812Z,101143.06
